Time;durP1;ratioP1;P1;durP2;ratioP2;P2;SDS_P1;SDS_P2;PMS_P1;PMS_P2;Temp;Humidity;BMP_temperature;BMP_pressure;BME280_temperature;BME280_humidity;BME280_pressure;Samples;Min_cycle;Max_cycle;Signal;HPM_P1;HPM_P2
2022/07/05 00:00:45;;;;;;;;;;;14.40;99.90;;;;;;5013392;28;19910;-79
2022/07/05 00:03:11;;;;;;;;;;;14.30;99.90;;;;;;5006591;28;19917;-79
2022/07/05 00:05:38;;;;;;;;;;;14.40;99.90;;;;;;4994909;28;20032;-80
2022/07/05 00:08:08;;;;;;;;;;;14.40;99.90;;;;;;5013215;28;19925;-80
2022/07/05 00:10:35;;;;;;;;;;;14.40;99.90;;;;;;5013332;28;20009;-80
2022/07/05 00:13:03;;;;;;;;;;;14.40;99.90;;;;;;5013269;28;19910;-79
2022/07/05 00:15:30;;;;;;;;;;;14.30;99.90;;;;;;5013197;28;19913;-79
2022/07/05 00:17:57;;;;;;;;;;;14.40;99.90;;;;;;5013466;28;20357;-81
2022/07/05 00:20:23;;;;;;;;;;;14.40;99.90;;;;;;5013299;28;19909;-80
2022/07/05 00:22:50;;;;;;;;;;;14.40;99.90;;;;;;5013345;28;19916;-80
2022/07/05 00:25:17;;;;;;;;;;;14.30;99.90;;;;;;5028490;28;20069;-79
2022/07/05 00:27:43;;;;;;;;;;;14.30;99.90;;;;;;5013080;28;20360;-80
2022/07/05 00:30:10;;;;;;;;;;;14.30;99.90;;;;;;5013074;28;19910;-79
2022/07/05 00:32:37;;;;;;;;;;;14.20;99.90;;;;;;5013093;28;20356;-79
2022/07/05 00:35:05;;;;;;;;;;;14.10;99.90;;;;;;5012679;28;20446;-79
2022/07/05 00:37:32;;;;;;;;;;;14.10;99.90;;;;;;5013116;28;20363;-79
2022/07/05 00:39:59;;;;;;;;;;;14.10;99.90;;;;;;5012989;28;20001;-79
2022/07/05 00:42:25;;;;;;;;;;;14.10;99.90;;;;;;5013143;28;20369;-79
2022/07/05 00:44:52;;;;;;;;;;;14.20;99.90;;;;;;5013012;28;20363;-80
2022/07/05 00:47:19;;;;;;;;;;;14.30;99.90;;;;;;5013235;28;19914;-80
2022/07/05 00:49:46;;;;;;;;;;;14.40;99.90;;;;;;5013148;28;19919;-83
2022/07/05 00:52:13;;;;;;;;;;;14.50;99.90;;;;;;5014646;28;19909;-80
2022/07/05 00:54:40;;;;;;;;;;;14.40;99.90;;;;;;5016738;28;20363;-80
2022/07/05 00:57:07;;;;;;;;;;;14.40;99.90;;;;;;5018703;28;19983;-79
2022/07/05 00:59:34;;;;;;;;;;;14.30;99.90;;;;;;5017097;28;20382;-79
2022/07/05 01:02:01;;;;;;;;;;;14.40;99.90;;;;;;5016507;28;19924;-77
2022/07/05 01:04:28;;;;;;;;;;;14.40;99.90;;;;;;5015995;28;19921;-79
2022/07/05 01:06:54;;;;;;;;;;;14.50;99.90;;;;;;5015005;28;19909;-79
2022/07/05 01:09:23;;;;;;;;;;;14.50;99.90;;;;;;5016490;28;20303;-79
2022/07/05 01:11:50;;;;;;;;;;;14.50;99.90;;;;;;5016265;28;19956;-79
2022/07/05 01:14:18;;;;;;;;;;;14.60;99.90;;;;;;5016265;28;19995;-78
2022/07/05 01:16:45;;;;;;;;;;;14.50;99.90;;;;;;5016110;28;20017;-79
2022/07/05 01:19:12;;;;;;;;;;;14.60;99.90;;;;;;5015577;28;19909;-79
2022/07/05 01:21:43;;;;;;;;;;;14.70;99.90;;;;;;5016090;28;20000;-80
2022/07/05 01:24:14;;;;;;;;;;;14.70;99.90;;;;;;5015936;28;19918;-78
2022/07/05 01:26:41;;;;;;;;;;;14.60;99.90;;;;;;5015845;28;19910;-78
2022/07/05 01:29:08;;;;;;;;;;;14.60;99.90;;;;;;5015904;28;19937;-78
2022/07/05 01:31:38;;;;;;;;;;;14.60;99.90;;;;;;5015813;28;19913;-78
2022/07/05 01:34:06;;;;;;;;;;;14.50;99.90;;;;;;5015740;28;20421;-78
2022/07/05 01:36:33;;;;;;;;;;;14.40;99.90;;;;;;5015748;28;19909;-78
2022/07/05 01:39:03;;;;;;;;;;;14.40;99.90;;;;;;5015319;28;19909;-78
2022/07/05 01:41:30;;;;;;;;;;;14.50;99.90;;;;;;5015486;28;19917;-77
2022/07/05 01:43:57;;;;;;;;;;;14.70;99.90;;;;;;5015279;28;19920;-78
2022/07/05 01:46:25;;;;;;;;;;;14.80;99.90;;;;;;5015430;28;20277;-78
2022/07/05 01:48:53;;;;;;;;;;;14.80;99.90;;;;;;5015166;28;19979;-79
2022/07/05 01:51:26;;;;;;;;;;;14.80;99.90;;;;;;5015179;28;19963;-79
2022/07/05 01:53:53;;;;;;;;;;;14.80;99.90;;;;;;5015489;28;19917;-78
2022/07/05 01:56:19;;;;;;;;;;;14.70;99.90;;;;;;5015236;28;20256;-79
2022/07/05 01:58:46;;;;;;;;;;;14.70;99.90;;;;;;5015404;28;20268;-78
2022/07/05 02:01:13;;;;;;;;;;;14.80;99.90;;;;;;5015021;28;19956;-78
2022/07/05 02:03:40;;;;;;;;;;;14.80;99.90;;;;;;5013531;28;19921;-78
2022/07/05 02:06:10;;;;;;;;;;;14.70;99.90;;;;;;5015145;28;19909;-78
2022/07/05 02:08:36;;;;;;;;;;;14.70;99.90;;;;;;5010795;28;19925;-78
2022/07/05 02:11:04;;;;;;;;;;;14.70;99.90;;;;;;5018438;28;19910;-78
2022/07/05 02:13:30;;;;;;;;;;;14.70;99.90;;;;;;4994643;28;19909;-78
2022/07/05 02:15:57;;;;;;;;;;;14.80;99.90;;;;;;4994672;28;20370;-78
2022/07/05 02:18:24;;;;;;;;;;;14.70;99.90;;;;;;5014565;28;19910;-79
2022/07/05 02:20:50;;;;;;;;;;;14.60;99.90;;;;;;5014770;28;19910;-78
2022/07/05 02:23:17;;;;;;;;;;;14.50;99.90;;;;;;5014778;28;20314;-78
2022/07/05 02:25:44;;;;;;;;;;;14.60;99.90;;;;;;5014835;28;19945;-79
2022/07/05 02:28:10;;;;;;;;;;;14.50;99.90;;;;;;5014971;28;19910;-79
2022/07/05 02:30:37;;;;;;;;;;;14.60;99.90;;;;;;5014830;28;19931;-79
2022/07/05 02:33:04;;;;;;;;;;;14.60;99.90;;;;;;5014390;28;19910;-78
2022/07/05 02:35:30;;;;;;;;;;;14.50;99.90;;;;;;5014820;28;19909;-77
2022/07/05 02:37:57;;;;;;;;;;;14.40;99.90;;;;;;5014610;28;20341;-77
2022/07/05 02:40:24;;;;;;;;;;;14.30;99.90;;;;;;5014525;28;19956;-77
2022/07/05 02:42:50;;;;;;;;;;;14.20;99.90;;;;;;5014281;28;20351;-78
2022/07/05 02:45:17;;;;;;;;;;;14.20;99.90;;;;;;5014375;28;19917;-78
2022/07/05 02:47:44;;;;;;;;;;;14.20;99.90;;;;;;5014336;28;19949;-77
2022/07/05 02:50:11;;;;;;;;;;;14.10;99.90;;;;;;5013080;28;19988;-80
2022/07/05 02:52:38;;;;;;;;;;;14.20;99.90;;;;;;5002505;28;19963;-78
2022/07/05 02:55:05;;;;;;;;;;;14.20;99.90;;;;;;5013295;28;19917;-78
2022/07/05 02:57:32;;;;;;;;;;;14.20;99.90;;;;;;5013455;28;19931;-78
2022/07/05 02:59:58;;;;;;;;;;;14.30;99.90;;;;;;5013395;28;19917;-76
2022/07/05 03:02:25;;;;;;;;;;;14.20;99.90;;;;;;5013146;28;19916;-78
2022/07/05 03:04:53;;;;;;;;;;;14.10;99.90;;;;;;5012747;28;20332;-77
2022/07/05 03:07:19;;;;;;;;;;;14.10;99.90;;;;;;5013848;28;19910;-77
2022/07/05 03:09:46;;;;;;;;;;;14.10;99.90;;;;;;5013964;28;19917;-77
2022/07/05 03:12:13;;;;;;;;;;;14.10;99.90;;;;;;5013929;28;20386;-77
2022/07/05 03:14:40;;;;;;;;;;;14.10;99.90;;;;;;5013581;28;20327;-77
2022/07/05 03:17:07;;;;;;;;;;;14.10;99.90;;;;;;5013547;28;19940;-77
2022/07/05 03:19:34;;;;;;;;;;;14.00;99.90;;;;;;5013866;28;19910;-79
2022/07/05 03:22:00;;;;;;;;;;;14.10;99.90;;;;;;5013979;28;19916;-78
2022/07/05 03:24:27;;;;;;;;;;;14.00;99.90;;;;;;5012713;28;19918;-76
2022/07/05 03:26:54;;;;;;;;;;;14.10;99.90;;;;;;5013547;28;19910;-78
2022/07/05 03:29:21;;;;;;;;;;;14.10;99.90;;;;;;5012331;28;19955;-77
2022/07/05 03:31:47;;;;;;;;;;;14.00;99.90;;;;;;5013651;28;19909;-78
2022/07/05 03:34:14;;;;;;;;;;;14.00;99.90;;;;;;5013639;28;19948;-78
2022/07/05 03:36:41;;;;;;;;;;;14.00;99.90;;;;;;5013807;28;20386;-77
2022/07/05 03:39:07;;;;;;;;;;;13.90;99.90;;;;;;5013465;28;19916;-78
2022/07/05 03:41:34;;;;;;;;;;;14.00;99.90;;;;;;5013748;28;20459;-78
2022/07/05 03:44:01;;;;;;;;;;;14.00;99.90;;;;;;5013611;28;20307;-78
2022/07/05 03:46:27;;;;;;;;;;;14.00;99.90;;;;;;5013470;28;19952;-77
2022/07/05 03:48:54;;;;;;;;;;;14.00;99.90;;;;;;5013322;28;19909;-78
2022/07/05 03:51:21;;;;;;;;;;;14.00;99.90;;;;;;5013692;28;19917;-77
2022/07/05 03:53:48;;;;;;;;;;;14.00;99.90;;;;;;5013584;28;19909;-78
2022/07/05 03:56:19;;;;;;;;;;;14.10;99.90;;;;;;5013557;28;19910;-78
2022/07/05 03:58:52;;;;;;;;;;;14.00;99.90;;;;;;5013627;28;19945;-79
2022/07/05 04:01:18;;;;;;;;;;;13.90;99.90;;;;;;5013520;28;19913;-79
2022/07/05 04:03:45;;;;;;;;;;;13.90;99.90;;;;;;5013065;28;19972;-79
2022/07/05 04:06:12;;;;;;;;;;;14.00;99.90;;;;;;5013588;28;20415;-78
2022/07/05 04:08:39;;;;;;;;;;;14.00;99.90;;;;;;5013537;28;19909;-79
2022/07/05 04:11:07;;;;;;;;;;;13.90;99.90;;;;;;5013161;28;19909;-79
2022/07/05 04:13:34;;;;;;;;;;;13.90;99.90;;;;;;5013436;28;19956;-79
2022/07/05 04:16:01;;;;;;;;;;;13.90;99.90;;;;;;5013315;28;19909;-79
2022/07/05 04:18:27;;;;;;;;;;;13.90;99.90;;;;;;5013219;28;19910;-78
2022/07/05 04:20:54;;;;;;;;;;;13.90;99.90;;;;;;5013235;28;19910;-79
2022/07/05 04:23:21;;;;;;;;;;;13.90;99.90;;;;;;5013156;28;20287;-78
2022/07/05 04:25:47;;;;;;;;;;;13.90;99.90;;;;;;5013313;28;19917;-78
2022/07/05 04:28:14;;;;;;;;;;;14.00;99.90;;;;;;5015977;28;19991;-78
2022/07/05 04:30:41;;;;;;;;;;;14.00;99.90;;;;;;5017109;28;19909;-78
2022/07/05 04:33:08;;;;;;;;;;;14.10;99.90;;;;;;5016662;28;19909;-80
2022/07/05 04:35:34;;;;;;;;;;;14.20;99.90;;;;;;5017074;28;19949;-79
2022/07/05 04:38:01;;;;;;;;;;;14.20;99.90;;;;;;5016827;28;19910;-80
2022/07/05 04:40:28;;;;;;;;;;;14.30;99.90;;;;;;5016703;28;20374;-79
2022/07/05 04:42:54;;;;;;;;;;;14.30;99.90;;;;;;5016704;28;19909;-80
2022/07/05 04:45:21;;;;;;;;;;;14.40;99.90;;;;;;5016782;28;20400;-80
2022/07/05 04:47:48;;;;;;;;;;;14.40;99.90;;;;;;5016536;28;19917;-80
2022/07/05 04:50:14;;;;;;;;;;;14.40;99.90;;;;;;5015573;28;19909;-79
2022/07/05 04:52:41;;;;;;;;;;;14.40;99.90;;;;;;5006842;28;19956;-78
2022/07/05 04:55:08;;;;;;;;;;;14.40;99.90;;;;;;4998261;28;19916;-78
2022/07/05 04:57:41;;;;;;;;;;;14.30;99.90;;;;;;5016593;28;20389;-79
2022/07/05 05:00:12;;;;;;;;;;;14.30;99.90;;;;;;5031659;28;20330;-80
2022/07/05 05:02:39;;;;;;;;;;;14.20;99.90;;;;;;5016331;28;19910;-79
2022/07/05 05:05:06;;;;;;;;;;;14.30;99.90;;;;;;5015934;28;19929;-78
2022/07/05 05:07:34;;;;;;;;;;;14.40;99.90;;;;;;5016372;28;20253;-79
2022/07/05 05:10:01;;;;;;;;;;;14.60;99.90;;;;;;5016268;28;19909;-79
2022/07/05 05:12:28;;;;;;;;;;;14.80;99.90;;;;;;5016223;28;19917;-79
2022/07/05 05:14:54;;;;;;;;;;;14.90;99.90;;;;;;5016095;28;19910;-79
2022/07/05 05:17:21;;;;;;;;;;;15.00;99.90;;;;;;5016101;28;19914;-79
2022/07/05 05:19:48;;;;;;;;;;;15.10;99.90;;;;;;5016184;28;19909;-79
2022/07/05 05:22:14;;;;;;;;;;;15.10;99.90;;;;;;5016039;28;20028;-78
2022/07/05 05:24:41;;;;;;;;;;;15.10;99.90;;;;;;5016024;28;19940;-78
2022/07/05 05:27:08;;;;;;;;;;;15.10;99.90;;;;;;5015805;28;19916;-78
2022/07/05 05:29:34;;;;;;;;;;;15.20;99.90;;;;;;5015968;28;19909;-78
2022/07/05 05:32:01;;;;;;;;;;;15.20;99.90;;;;;;5015687;28;20268;-78
2022/07/05 05:34:28;;;;;;;;;;;15.30;99.90;;;;;;5015894;28;19996;-78
2022/07/05 05:36:54;;;;;;;;;;;15.30;99.90;;;;;;5015717;28;20371;-78
2022/07/05 05:39:21;;;;;;;;;;;15.30;99.90;;;;;;5015686;28;19909;-77
2022/07/05 05:41:48;;;;;;;;;;;15.30;99.90;;;;;;5015747;28;20348;-77
2022/07/05 05:44:15;;;;;;;;;;;15.30;99.90;;;;;;5015633;28;19918;-77
2022/07/05 05:46:42;;;;;;;;;;;15.40;99.90;;;;;;5015363;28;20257;-77
2022/07/05 05:49:09;;;;;;;;;;;15.40;99.90;;;;;;5015390;28;19964;-76
2022/07/05 05:51:35;;;;;;;;;;;15.40;99.90;;;;;;5015637;28;19910;-78
2022/07/05 05:54:02;;;;;;;;;;;15.40;99.90;;;;;;5015513;28;19910;-78
2022/07/05 05:56:29;;;;;;;;;;;15.40;99.90;;;;;;5015426;28;19925;-78
2022/07/05 05:58:55;;;;;;;;;;;15.40;99.90;;;;;;5015064;28;19909;-78
2022/07/05 06:01:22;;;;;;;;;;;15.40;99.90;;;;;;5015215;28;19917;-78
2022/07/05 06:03:49;;;;;;;;;;;15.40;99.90;;;;;;5014780;28;19928;-78
2022/07/05 06:06:15;;;;;;;;;;;15.40;99.90;;;;;;5014345;28;19910;-77
2022/07/05 06:08:42;;;;;;;;;;;15.40;99.90;;;;;;5014500;28;19914;-77
2022/07/05 06:11:09;;;;;;;;;;;15.40;99.90;;;;;;5014134;28;19917;-76
2022/07/05 06:13:36;;;;;;;;;;;15.50;99.90;;;;;;5014063;28;19909;-77
2022/07/05 06:16:02;;;;;;;;;;;15.50;99.90;;;;;;5013926;28;19995;-77
2022/07/05 06:18:29;;;;;;;;;;;15.50;99.90;;;;;;5014395;28;19910;-77
2022/07/05 06:20:56;;;;;;;;;;;15.40;99.90;;;;;;5013938;28;19910;-77
2022/07/05 06:23:22;;;;;;;;;;;15.50;99.90;;;;;;5014027;28;19958;-77
2022/07/05 06:25:49;;;;;;;;;;;15.40;99.90;;;;;;5013926;28;20036;-77
2022/07/05 06:28:16;;;;;;;;;;;15.40;99.90;;;;;;5013952;28;19916;-76
2022/07/05 06:30:43;;;;;;;;;;;15.40;99.90;;;;;;5013845;28;19936;-76
2022/07/05 06:33:10;;;;;;;;;;;15.40;99.90;;;;;;5013344;28;20000;-78
2022/07/05 06:35:37;;;;;;;;;;;15.40;99.90;;;;;;5013417;28;19957;-76
2022/07/05 06:38:07;;;;;;;;;;;15.20;99.90;;;;;;5013674;28;20356;-76
2022/07/05 06:40:35;;;;;;;;;;;15.10;99.90;;;;;;5013810;28;19909;-77
2022/07/05 06:43:03;;;;;;;;;;;15.10;99.90;;;;;;5013587;28;19957;-77
2022/07/05 06:45:30;;;;;;;;;;;15.00;99.90;;;;;;5013712;28;20282;-77
2022/07/05 06:48:00;;;;;;;;;;;15.00;99.90;;;;;;5013438;28;19925;-77
2022/07/05 06:50:27;;;;;;;;;;;15.00;99.90;;;;;;5013003;28;20295;-77
2022/07/05 06:52:54;;;;;;;;;;;15.10;99.90;;;;;;5010645;28;20275;-77
2022/07/05 06:55:22;;;;;;;;;;;14.90;99.90;;;;;;5011407;28;19909;-77
2022/07/05 06:57:48;;;;;;;;;;;14.60;99.90;;;;;;5011294;28;19910;-77
2022/07/05 07:00:15;;;;;;;;;;;14.30;99.90;;;;;;5009876;28;19910;-77
2022/07/05 07:02:42;;;;;;;;;;;14.00;99.90;;;;;;5011150;28;19910;-77
2022/07/05 07:05:09;;;;;;;;;;;14.00;99.90;;;;;;4896867;28;3281300;-78
2022/07/05 07:10:20;;;;;;;;;;;13.80;99.90;;;;;;5012170;28;19916;-78
2022/07/05 07:12:47;;;;;;;;;;;13.70;99.90;;;;;;5011827;28;19956;-78
2022/07/05 07:15:14;;;;;;;;;;;13.70;99.90;;;;;;5026841;28;20446;-78
2022/07/05 07:17:41;;;;;;;;;;;13.60;99.90;;;;;;5011373;28;20359;-76
2022/07/05 07:20:08;;;;;;;;;;;13.50;99.90;;;;;;5011778;28;19949;-78
2022/07/05 07:22:35;;;;;;;;;;;13.60;99.90;;;;;;5011761;28;19964;-78
2022/07/05 07:25:01;;;;;;;;;;;13.60;99.90;;;;;;5011478;28;20259;-78
2022/07/05 07:27:28;;;;;;;;;;;13.60;99.90;;;;;;5011669;28;19916;-78
2022/07/05 07:29:55;;;;;;;;;;;13.60;99.90;;;;;;5011352;28;19909;-78
2022/07/05 07:32:21;;;;;;;;;;;13.60;99.90;;;;;;5011307;28;20418;-77
2022/07/05 07:34:48;;;;;;;;;;;13.70;99.90;;;;;;5011131;28;20016;-78
2022/07/05 07:37:15;;;;;;;;;;;13.80;99.90;;;;;;5011753;28;20352;-78
2022/07/05 07:39:41;;;;;;;;;;;13.90;99.90;;;;;;5011387;28;19909;-78
2022/07/05 07:42:08;;;;;;;;;;;14.00;99.90;;;;;;5011514;28;19914;-79
2022/07/05 07:44:35;;;;;;;;;;;14.10;99.90;;;;;;5011140;28;20445;-78
2022/07/05 07:47:02;;;;;;;;;;;14.20;99.90;;;;;;5011169;28;19914;-79
2022/07/05 07:49:28;;;;;;;;;;;14.20;99.90;;;;;;5011284;28;19913;-77
2022/07/05 07:51:55;;;;;;;;;;;14.20;99.90;;;;;;5011263;28;19910;-78
2022/07/05 07:54:22;;;;;;;;;;;14.10;99.90;;;;;;5011322;28;19909;-78
2022/07/05 07:56:49;;;;;;;;;;;14.10;99.90;;;;;;5011039;28;19931;-76
2022/07/05 07:59:16;;;;;;;;;;;14.20;99.90;;;;;;5011199;28;19914;-78
2022/07/05 08:01:42;;;;;;;;;;;14.20;99.90;;;;;;5011609;28;20427;-79
2022/07/05 08:04:11;;;;;;;;;;;14.30;99.90;;;;;;5015010;28;19929;-78
2022/07/05 08:06:38;;;;;;;;;;;14.50;99.90;;;;;;5015307;28;19940;-78
2022/07/05 08:09:04;;;;;;;;;;;14.70;99.90;;;;;;5015289;28;20307;-78
2022/07/05 08:11:31;;;;;;;;;;;14.80;99.90;;;;;;5014957;28;19964;-78
2022/07/05 08:13:58;;;;;;;;;;;14.90;99.90;;;;;;5015245;28;19945;-78
2022/07/05 08:16:25;;;;;;;;;;;14.90;99.90;;;;;;5015064;28;19910;-78
2022/07/05 08:21:39;;;;;;;;;;;15.00;99.90;;;;;;5015287;28;19956;-78
2022/07/05 08:24:12;;;;;;;;;;;15.00;99.90;;;;;;5013202;28;20391;-78
2022/07/05 08:26:39;;;;;;;;;;;15.00;99.90;;;;;;4995107;28;19910;-77
2022/07/05 08:29:07;;;;;;;;;;;15.10;99.90;;;;;;4994970;28;19914;-77
2022/07/05 08:31:35;;;;;;;;;;;15.20;99.90;;;;;;4995179;28;19910;-77
2022/07/05 08:34:02;;;;;;;;;;;15.20;99.90;;;;;;4994523;28;20422;-77
2022/07/05 08:36:29;;;;;;;;;;;15.30;99.90;;;;;;4994838;28;20004;-78
2022/07/05 08:38:56;;;;;;;;;;;15.30;99.90;;;;;;4995037;28;19914;-77
2022/07/05 08:41:23;;;;;;;;;;;15.10;99.90;;;;;;4995006;28;19910;-78
2022/07/05 08:43:51;;;;;;;;;;;14.90;99.90;;;;;;4994780;28;19914;-78
2022/07/05 08:46:18;;;;;;;;;;;14.70;99.90;;;;;;4994697;28;20064;-76
2022/07/05 08:48:48;;;;;;;;;;;14.60;99.90;;;;;;4994666;28;19913;-77
2022/07/05 08:51:20;;;;;;;;;;;14.50;99.90;;;;;;4994430;28;20004;-76
2022/07/05 08:53:48;;;;;;;;;;;14.50;99.90;;;;;;4994498;28;19917;-77
2022/07/05 08:56:15;;;;;;;;;;;14.50;99.90;;;;;;4994511;28;19914;-75
2022/07/05 08:58:42;;;;;;;;;;;14.50;99.90;;;;;;4994628;28;20348;-76
2022/07/05 09:01:10;;;;;;;;;;;14.60;99.90;;;;;;4994502;28;19917;-77
2022/07/05 09:03:42;;;;;;;;;;;14.80;99.90;;;;;;4993388;28;20323;-77
2022/07/05 09:06:11;;;;;;;;;;;14.90;99.90;;;;;;4995786;28;19914;-77
2022/07/05 09:08:41;;;;;;;;;;;15.00;99.90;;;;;;4996542;28;19917;-77
2022/07/05 09:11:09;;;;;;;;;;;15.00;99.90;;;;;;4996178;28;19968;-77
2022/07/05 09:13:38;;;;;;;;;;;15.10;99.90;;;;;;4995860;28;19910;-77
2022/07/05 09:16:05;;;;;;;;;;;15.20;99.90;;;;;;4995108;28;19910;-76
2022/07/05 09:18:49;;;;;;;;;;;15.10;99.90;;;;;;4995793;28;19910;-76
2022/07/05 09:21:23;;;;;;;;;;;15.00;99.90;;;;;;4996351;28;19936;-76
2022/07/05 09:24:01;;;;;;;;;;;14.80;99.90;;;;;;4996165;28;19968;-77
2022/07/05 09:26:35;;;;;;;;;;;14.60;99.90;;;;;;4996299;28;19910;-76
2022/07/05 09:29:03;;;;;;;;;;;14.50;99.90;;;;;;4995982;28;20279;-77
2022/07/05 09:31:31;;;;;;;;;;;14.40;99.90;;;;;;4995948;28;20008;-77
2022/07/05 09:34:08;;;;;;;;;;;14.40;99.90;;;;;;4995499;28;20413;-76
2022/07/05 09:36:53;;;;;;;;;;;14.40;99.90;;;;;;4996247;28;20403;-77
2022/07/05 09:39:39;;;;;;;;;;;14.50;99.90;;;;;;4996220;28;19909;-77
2022/07/05 09:42:12;;;;;;;;;;;14.60;99.90;;;;;;4995852;28;20012;-77
2022/07/05 09:44:44;;;;;;;;;;;14.80;99.90;;;;;;4995787;28;19957;-77
2022/07/05 09:47:12;;;;;;;;;;;15.00;99.90;;;;;;4995881;28;19910;-77
2022/07/05 09:49:41;;;;;;;;;;;15.10;99.90;;;;;;4995276;28;19910;-77
2022/07/05 09:52:08;;;;;;;;;;;15.10;99.90;;;;;;4995661;28;20117;-77
2022/07/05 09:54:35;;;;;;;;;;;15.10;99.90;;;;;;4995515;28;19909;-77
2022/07/05 09:57:01;;;;;;;;;;;15.10;99.90;;;;;;4995565;28;19910;-77
2022/07/05 09:59:28;;;;;;;;;;;15.10;99.90;;;;;;4995382;28;19914;-77
2022/07/05 10:01:55;;;;;;;;;;;15.10;99.90;;;;;;4995584;28;19960;-77
2022/07/05 10:04:23;;;;;;;;;;;15.10;99.90;;;;;;4994553;28;19944;-77
2022/07/05 10:06:50;;;;;;;;;;;15.10;99.90;;;;;;4995441;28;19910;-77
2022/07/05 10:09:18;;;;;;;;;;;15.10;99.90;;;;;;4994815;28;20016;-78
2022/07/05 10:11:45;;;;;;;;;;;15.10;99.90;;;;;;4995499;28;19964;-77
2022/07/05 10:14:16;;;;;;;;;;;15.10;99.90;;;;;;4995445;28;19996;-76
2022/07/05 10:16:46;;;;;;;;;;;15.20;99.90;;;;;;4995074;28;19911;-77
2022/07/05 10:19:15;;;;;;;;;;;15.30;99.90;;;;;;4995116;28;20356;-77
2022/07/05 10:21:42;;;;;;;;;;;15.30;99.90;;;;;;4995145;28;19909;-76
2022/07/05 10:24:09;;;;;;;;;;;15.20;99.90;;;;;;4994559;28;19918;-76
2022/07/05 10:26:36;;;;;;;;;;;15.30;99.90;;;;;;4994760;28;19921;-77
2022/07/05 10:29:03;;;;;;;;;;;15.20;99.90;;;;;;4992632;28;20323;-77
2022/07/05 10:31:31;;;;;;;;;;;15.20;99.90;;;;;;4992614;28;19910;-77
2022/07/05 10:34:00;;;;;;;;;;;15.30;99.90;;;;;;4992957;28;20402;-77
2022/07/05 10:36:27;;;;;;;;;;;15.30;99.90;;;;;;4992737;28;19913;-77
2022/07/05 10:38:54;;;;;;;;;;;15.30;99.90;;;;;;4992493;28;19909;-77
2022/07/05 10:41:23;;;;;;;;;;;15.30;99.90;;;;;;4992215;28;19910;-76
2022/07/05 10:43:55;;;;;;;;;;;15.30;99.90;;;;;;4992538;28;19914;-76
2022/07/05 10:46:43;;;;;;;;;;;15.30;99.90;;;;;;4992555;28;19910;-75
2022/07/05 10:49:10;;;;;;;;;;;15.30;99.90;;;;;;4992374;28;19973;-75
2022/07/05 10:51:37;;;;;;;;;;;15.30;99.90;;;;;;4992559;28;19909;-76
2022/07/05 10:54:04;;;;;;;;;;;15.30;99.90;;;;;;4992238;28;19916;-76
2022/07/05 10:56:31;;;;;;;;;;;15.30;99.90;;;;;;4991121;28;19936;-76
2022/07/05 10:59:09;;;;;;;;;;;15.30;99.90;;;;;;4991974;28;19916;-76
2022/07/05 11:01:37;;;;;;;;;;;15.10;99.90;;;;;;4992153;28;19914;-76
2022/07/05 11:04:04;;;;;;;;;;;14.70;99.90;;;;;;4992018;28;19922;-76
2022/07/05 11:06:33;;;;;;;;;;;14.50;99.90;;;;;;4992330;28;19910;-76
2022/07/05 11:09:02;;;;;;;;;;;14.40;99.90;;;;;;4991633;28;19916;-75
2022/07/05 11:11:36;;;;;;;;;;;14.40;99.90;;;;;;4992133;28;19910;-75
2022/07/05 11:14:22;;;;;;;;;;;14.20;99.90;;;;;;4992826;28;19920;-76
2022/07/05 11:17:11;;;;;;;;;;;14.30;99.90;;;;;;4992095;28;19916;-75
2022/07/05 11:20:10;;;;;;;;;;;14.20;99.90;;;;;;4991813;28;19953;-76
2022/07/05 11:22:39;;;;;;;;;;;14.20;99.90;;;;;;4952779;28;19910;-76
2022/07/05 11:25:06;;;;;;;;;;;14.30;99.90;;;;;;4991567;28;20285;-76
2022/07/05 11:27:34;;;;;;;;;;;14.20;99.90;;;;;;4991602;28;19988;-76
2022/07/05 11:30:00;;;;;;;;;;;14.30;99.90;;;;;;4991613;28;19972;-75
2022/07/05 11:32:30;;;;;;;;;;;14.40;99.90;;;;;;4991093;28;19917;-76
2022/07/05 11:35:12;;;;;;;;;;;14.30;99.90;;;;;;4991390;28;20197;-75
2022/07/05 11:37:58;;;;;;;;;;;14.30;99.90;;;;;;4991771;28;19920;-77
2022/07/05 11:40:32;;;;;;;;;;;14.20;99.90;;;;;;4991231;28;19910;-76
2022/07/05 11:43:01;;;;;;;;;;;14.30;99.90;;;;;;4991491;28;19917;-77
2022/07/05 11:45:28;;;;;;;;;;;14.20;99.90;;;;;;4991662;28;20357;-77
2022/07/05 11:47:56;;;;;;;;;;;14.20;99.90;;;;;;4991082;28;19945;-77
2022/07/05 11:50:28;;;;;;;;;;;14.30;99.90;;;;;;4992412;28;19917;-77
2022/07/05 11:52:54;;;;;;;;;;;14.40;99.90;;;;;;4993483;28;19910;-77
2022/07/05 11:55:21;;;;;;;;;;;14.60;99.90;;;;;;4993845;28;19916;-76
2022/07/05 11:57:51;;;;;;;;;;;14.70;99.90;;;;;;4993785;28;19973;-77
2022/07/05 12:00:37;;;;;;;;;;;14.70;99.90;;;;;;4993555;28;20338;-77
2022/07/05 12:03:16;;;;;;;;;;;14.80;99.90;;;;;;4991659;28;19910;-76
2022/07/05 12:05:42;;;;;;;;;;;14.80;99.90;;;;;;4991362;28;20375;-75
2022/07/05 12:08:09;;;;;;;;;;;14.80;99.90;;;;;;4991744;28;19964;-76
2022/07/05 12:13:21;;;;;;;;;;;14.80;99.90;;;;;;4992421;28;19980;-76
2022/07/05 12:15:48;;;;;;;;;;;14.80;99.90;;;;;;4991439;28;19932;-76
2022/07/05 12:18:15;;;;;;;;;;;14.80;99.90;;;;;;4990731;28;20348;-75
2022/07/05 12:20:42;;;;;;;;;;;14.80;99.90;;;;;;4991536;28;20680;-78
2022/07/05 12:23:09;;;;;;;;;;;14.80;99.90;;;;;;4991346;28;20000;-77
2022/07/05 12:25:36;;;;;;;;;;;14.60;99.90;;;;;;4991408;28;20344;-78
2022/07/05 12:28:05;;;;;;;;;;;14.50;99.90;;;;;;4991440;28;19910;-78
2022/07/05 12:30:33;;;;;;;;;;;14.30;99.90;;;;;;4991306;28;19968;-77
2022/07/05 12:33:01;;;;;;;;;;;14.30;99.90;;;;;;4990652;28;19914;-77
2022/07/05 12:35:35;;;;;;;;;;;14.10;99.90;;;;;;4991418;28;19910;-78
2022/07/05 12:38:08;;;;;;;;;;;13.90;99.90;;;;;;4991574;28;19997;-77
2022/07/05 12:40:35;;;;;;;;;;;13.80;99.90;;;;;;5001160;28;19909;-77
2022/07/05 12:43:03;;;;;;;;;;;13.80;99.90;;;;;;5010881;28;19989;-76
2022/07/05 12:45:30;;;;;;;;;;;13.70;99.90;;;;;;5012724;28;19968;-76
2022/07/05 12:47:57;;;;;;;;;;;13.70;99.90;;;;;;5013933;28;20368;-78
2022/07/05 12:50:25;;;;;;;;;;;13.70;99.90;;;;;;5016846;28;19916;-78
2022/07/05 12:58:46;;;;;;;;;;;13.50;99.90;;;;;;5017506;28;19916;-79
2022/07/05 13:01:22;;;;;;;;;;;13.50;99.90;;;;;;5016701;28;20418;-77
2022/07/05 13:04:05;;;;;;;;;;;13.50;99.90;;;;;;5016279;28;20363;-78
2022/07/05 13:06:41;;;;;;;;;;;13.50;99.90;;;;;;5016383;28;19979;-78
2022/07/05 13:09:08;;;;;;;;;;;13.40;99.90;;;;;;5016094;28;20337;-78
2022/07/05 13:11:35;;;;;;;;;;;13.40;99.90;;;;;;5016428;28;19980;-77
2022/07/05 13:14:02;;;;;;;;;;;13.40;99.90;;;;;;5016168;28;19919;-78
2022/07/05 13:16:29;;;;;;;;;;;13.40;99.90;;;;;;5016255;28;19910;-78
2022/07/05 13:19:06;;;;;;;;;;;13.40;99.90;;;;;;5018158;28;19916;-77
2022/07/05 13:21:32;;;;;;;;;;;13.40;99.90;;;;;;5016516;28;19909;-77
2022/07/05 13:23:59;;;;;;;;;;;13.30;99.90;;;;;;5016229;28;19921;-77
2022/07/05 13:26:25;;;;;;;;;;;13.30;99.90;;;;;;5016235;28;20287;-77
2022/07/05 13:28:52;;;;;;;;;;;13.30;99.90;;;;;;5015815;28;19910;-77
2022/07/05 13:31:19;;;;;;;;;;;13.30;99.90;;;;;;5015971;28;19941;-77
2022/07/05 13:33:48;;;;;;;;;;;13.30;99.90;;;;;;5016094;28;19910;-77
2022/07/05 13:36:15;;;;;;;;;;;13.30;99.90;;;;;;5014456;28;20274;-77
2022/07/05 13:38:42;;;;;;;;;;;13.30;99.90;;;;;;5015826;28;19910;-78
2022/07/05 13:41:11;;;;;;;;;;;13.30;99.90;;;;;;5015593;28;19913;-78
2022/07/05 13:43:39;;;;;;;;;;;13.30;99.90;;;;;;5015417;28;20366;-78
2022/07/05 13:46:06;;;;;;;;;;;13.30;99.90;;;;;;5015795;28;19918;-77
2022/07/05 13:48:33;;;;;;;;;;;13.40;99.90;;;;;;5015700;28;19910;-77
2022/07/05 13:51:00;;;;;;;;;;;13.40;99.90;;;;;;5015400;28;20374;-77
2022/07/05 13:53:27;;;;;;;;;;;13.40;99.90;;;;;;5015527;28;19913;-77
2022/07/05 13:55:53;;;;;;;;;;;13.40;99.90;;;;;;5015443;28;19916;-77
2022/07/05 13:58:20;;;;;;;;;;;13.40;99.90;;;;;;5015444;28;19910;-77
2022/07/05 14:00:47;;;;;;;;;;;13.40;99.90;;;;;;5014294;28;19914;-77
2022/07/05 14:03:15;;;;;;;;;;;13.40;99.90;;;;;;5015276;28;19917;-78
2022/07/05 14:05:45;;;;;;;;;;;13.30;99.90;;;;;;5015275;28;19929;-76
2022/07/05 14:08:12;;;;;;;;;;;13.30;99.90;;;;;;5015214;28;19909;-76
2022/07/05 14:10:39;;;;;;;;;;;13.30;99.90;;;;;;5015160;28;19945;-76
2022/07/05 14:13:07;;;;;;;;;;;13.20;99.90;;;;;;5015045;28;19917;-77
2022/07/05 14:15:33;;;;;;;;;;;13.20;99.90;;;;;;5014999;28;19913;-76
2022/07/05 14:18:01;;;;;;;;;;;13.20;99.90;;;;;;5015041;28;20007;-77
2022/07/05 14:20:29;;;;;;;;;;;13.20;99.90;;;;;;5014937;28;20352;-76
2022/07/05 14:22:55;;;;;;;;;;;13.20;99.90;;;;;;5014750;28;19915;-77
2022/07/05 14:25:22;;;;;;;;;;;13.10;99.90;;;;;;5014925;28;19918;-77
2022/07/05 14:27:49;;;;;;;;;;;13.10;99.90;;;;;;5014830;28;19963;-77
2022/07/05 14:30:16;;;;;;;;;;;13.10;99.90;;;;;;5014821;28;19956;-77
2022/07/05 14:32:42;;;;;;;;;;;13.00;99.90;;;;;;5014788;28;19944;-77
2022/07/05 14:35:09;;;;;;;;;;;13.10;99.90;;;;;;5014631;28;19996;-77